sensor_id;sensor_type;location;lat;lon;timestamp;pressure;altitude;pressure_sealevel;temperature;humidity
12360;BME280;6244;51.460;7.090;2023-03-02T00:04:37;101406.81;;;1.64;55.91
12360;BME280;6244;51.460;7.090;2023-03-02T00:09:35;101404.19;;;1.70;56.12
12360;BME280;6244;51.460;7.090;2023-03-02T00:14:32;101403.31;;;1.71;55.66
12360;BME280;6244;51.460;7.090;2023-03-02T00:19:30;101396.44;;;1.59;55.64
12360;BME280;6244;51.460;7.090;2023-03-02T00:24:27;101399.91;;;1.60;55.84
12360;BME280;6244;51.460;7.090;2023-03-02T00:29:24;101393.03;;;1.48;56.24
12360;BME280;6244;51.460;7.090;2023-03-02T00:34:20;101385.28;;;1.46;56.00
12360;BME280;6244;51.460;7.090;2023-03-02T00:39:18;101387.88;;;1.45;56.32
12360;BME280;6244;51.460;7.090;2023-03-02T00:44:15;101381.84;;;1.43;56.03
12360;BME280;6244;51.460;7.090;2023-03-02T00:49:12;101376.69;;;1.34;56.54
12360;BME280;6244;51.460;7.090;2023-03-02T00:54:09;101371.53;;;1.38;56.20
12360;BME280;6244;51.460;7.090;2023-03-02T00:59:08;101374.88;;;1.60;55.94
12360;BME280;6244;51.460;7.090;2023-03-02T01:04:20;101376.69;;;1.38;56.05
12360;BME280;6244;51.460;7.090;2023-03-02T01:09:17;101368.91;;;1.44;56.79
12360;BME280;6244;51.460;7.090;2023-03-02T01:14:14;101374.94;;;1.34;56.61
12360;BME280;6244;51.460;7.090;2023-03-02T01:19:11;101372.38;;;1.33;56.93
12360;BME280;6244;51.460;7.090;2023-03-02T01:24:09;101374.13;;;1.20;57.66
12360;BME280;6244;51.460;7.090;2023-03-02T01:29:06;101370.66;;;1.23;57.58
12360;BME280;6244;51.460;7.090;2023-03-02T01:34:04;101368.09;;;0.98;57.90
12360;BME280;6244;51.460;7.090;2023-03-02T01:39:00;101359.50;;;0.79;58.65
12360;BME280;6244;51.460;7.090;2023-03-02T01:43:57;101362.06;;;0.56;59.90
12360;BME280;6244;51.460;7.090;2023-03-02T01:48:57;101367.22;;;0.72;59.69
12360;BME280;6244;51.460;7.090;2023-03-02T01:53:58;101366.34;;;0.61;58.77
12360;BME280;6244;51.460;7.090;2023-03-02T01:58:59;101366.38;;;0.68;59.20
12360;BME280;6244;51.460;7.090;2023-03-02T02:03:56;101356.03;;;0.74;59.25
12360;BME280;6244;51.460;7.090;2023-03-02T02:08:56;101350.03;;;0.81;59.00
12360;BME280;6244;51.460;7.090;2023-03-02T02:13:56;101348.31;;;0.76;58.99
12360;BME280;6244;51.460;7.090;2023-03-02T02:18:53;101350.00;;;0.55;59.32
12360;BME280;6244;51.460;7.090;2023-03-02T02:24:00;101348.31;;;0.80;59.40
12360;BME280;6244;51.460;7.090;2023-03-02T02:29:03;101343.13;;;0.79;58.61
12360;BME280;6244;51.460;7.090;2023-03-02T02:34:07;101332.81;;;0.64;59.34
12360;BME280;6244;51.460;7.090;2023-03-02T02:39:07;101331.06;;;0.69;59.69
12360;BME280;6244;51.460;7.090;2023-03-02T02:44:11;101320.75;;;0.52;59.15
12360;BME280;6244;51.460;7.090;2023-03-02T02:49:20;101316.44;;;0.58;59.89
12360;BME280;6244;51.460;7.090;2023-03-02T02:54:19;101320.75;;;0.67;59.57
12360;BME280;6244;51.460;7.090;2023-03-02T02:59:20;101311.25;;;0.60;59.24
12360;BME280;6244;51.460;7.090;2023-03-02T03:04:19;101318.16;;;0.47;59.63
12360;BME280;6244;51.460;7.090;2023-03-02T03:09:17;101320.72;;;0.35;59.89
12360;BME280;6244;51.460;7.090;2023-03-02T03:14:15;101306.94;;;0.32;59.58
12360;BME280;6244;51.460;7.090;2023-03-02T03:19:19;101314.72;;;0.38;59.68
12360;BME280;6244;51.460;7.090;2023-03-02T03:24:16;101316.41;;;0.34;59.54
12360;BME280;6244;51.460;7.090;2023-03-02T03:29:14;101305.22;;;0.29;59.74
12360;BME280;6244;51.460;7.090;2023-03-02T03:34:10;101313.00;;;0.40;59.87
12360;BME280;6244;51.460;7.090;2023-03-02T03:39:10;101324.16;;;0.49;59.70
12360;BME280;6244;51.460;7.090;2023-03-02T03:44:07;101323.31;;;0.29;59.73
12360;BME280;6244;51.460;7.090;2023-03-02T03:49:04;101332.78;;;0.44;59.97
12360;BME280;6244;51.460;7.090;2023-03-02T03:54:01;101333.66;;;0.38;59.71
12360;BME280;6244;51.460;7.090;2023-03-02T03:59:00;101341.41;;;0.52;59.27
12360;BME280;6244;51.460;7.090;2023-03-02T04:04:02;101334.50;;;0.48;59.34
12360;BME280;6244;51.460;7.090;2023-03-02T04:08:59;101330.22;;;0.51;59.29
12360;BME280;6244;51.460;7.090;2023-03-02T04:14:00;101322.44;;;0.44;59.58
12360;BME280;6244;51.460;7.090;2023-03-02T04:18:57;101324.19;;;0.55;58.90
12360;BME280;6244;51.460;7.090;2023-03-02T04:23:54;101321.59;;;0.55;58.46
12360;BME280;6244;51.460;7.090;2023-03-02T04:28:51;101323.31;;;0.55;58.70
12360;BME280;6244;51.460;7.090;2023-03-02T04:33:49;101318.16;;;0.56;59.24
12360;BME280;6244;51.460;7.090;2023-03-02T04:38:45;101325.91;;;0.55;59.23
12360;BME280;6244;51.460;7.090;2023-03-02T04:43:42;101325.06;;;0.50;59.24
12360;BME280;6244;51.460;7.090;2023-03-02T04:48:39;101330.19;;;0.44;59.18
12360;BME280;6244;51.460;7.090;2023-03-02T04:53:37;101331.06;;;0.40;59.29
12360;BME280;6244;51.460;7.090;2023-03-02T04:58:33;101319.88;;;0.48;59.23
12360;BME280;6244;51.460;7.090;2023-03-02T05:03:30;101322.44;;;0.36;59.56
12360;BME280;6244;51.460;7.090;2023-03-02T05:08:26;101329.34;;;0.46;58.91
12360;BME280;6244;51.460;7.090;2023-03-02T05:13:24;101321.59;;;0.48;58.93
12360;BME280;6244;51.460;7.090;2023-03-02T05:18:22;101316.41;;;0.26;58.81
12360;BME280;6244;51.460;7.090;2023-03-02T05:23:19;101317.25;;;0.13;59.53
12360;BME280;6244;51.460;7.090;2023-03-02T05:28:19;101310.38;;;0.21;60.32
12360;BME280;6244;51.460;7.090;2023-03-02T05:33:18;101316.41;;;0.26;59.85
12360;BME280;6244;51.460;7.090;2023-03-02T05:38:15;101321.56;;;0.31;59.09
12360;BME280;6244;51.460;7.090;2023-03-02T05:43:14;101319.88;;;0.25;58.83
12360;BME280;6244;51.460;7.090;2023-03-02T05:48:12;101324.16;;;0.31;58.76
12360;BME280;6244;51.460;7.090;2023-03-02T05:53:10;101305.22;;;0.15;59.02
12360;BME280;6244;51.460;7.090;2023-03-02T05:58:08;101308.63;;;0.07;59.54
12360;BME280;6244;51.460;7.090;2023-03-02T06:03:07;101306.94;;;0.18;59.42
12360;BME280;6244;51.460;7.090;2023-03-02T06:08:04;101306.06;;;0.22;59.57
12360;BME280;6244;51.460;7.090;2023-03-02T06:13:02;101315.50;;;0.12;59.21
12360;BME280;6244;51.460;7.090;2023-03-02T06:17:58;101317.22;;;0.10;59.90
12360;BME280;6244;51.460;7.090;2023-03-02T06:22:55;101318.97;;;0.16;59.59
12360;BME280;6244;51.460;7.090;2023-03-02T06:27:52;101317.22;;;0.07;59.11
12360;BME280;6244;51.460;7.090;2023-03-02T06:32:50;101328.38;;;-0.03;60.05
12360;BME280;6244;51.460;7.090;2023-03-02T06:37:47;101330.13;;;0.12;60.32
12360;BME280;6244;51.460;7.090;2023-03-02T06:42:43;101336.19;;;0.18;60.17
12360;BME280;6244;51.460;7.090;2023-03-02T06:47:40;101338.75;;;0.15;59.45
12360;BME280;6244;51.460;7.090;2023-03-02T06:52:38;101337.88;;;0.10;59.55
12360;BME280;6244;51.460;7.090;2023-03-02T06:57:34;101340.41;;;-0.07;59.82
12360;BME280;6244;51.460;7.090;2023-03-02T07:02:31;101347.25;;;-0.21;60.63
12360;BME280;6244;51.460;7.090;2023-03-02T07:07:27;101335.22;;;-0.16;61.01
12360;BME280;6244;51.460;7.090;2023-03-02T07:12:25;101335.28;;;0.09;60.64
12360;BME280;6244;51.460;7.090;2023-03-02T07:17:22;101339.66;;;0.29;60.38
12360;BME280;6244;51.460;7.090;2023-03-02T07:22:19;101335.31;;;0.15;60.16
12360;BME280;6244;51.460;7.090;2023-03-02T07:27:16;101333.63;;;0.27;60.40
12360;BME280;6244;51.460;7.090;2023-03-02T07:32:14;101336.19;;;0.35;59.78
12360;BME280;6244;51.460;7.090;2023-03-02T07:37:11;101341.38;;;0.32;60.26
12360;BME280;6244;51.460;7.090;2023-03-02T07:42:07;101344.81;;;0.43;59.04
12360;BME280;6244;51.460;7.090;2023-03-02T07:47:06;101353.44;;;0.61;59.17
12360;BME280;6244;51.460;7.090;2023-03-02T07:52:04;101350.00;;;0.58;59.31
12360;BME280;6244;51.460;7.090;2023-03-02T07:57:01;101362.06;;;0.56;59.09
12360;BME280;6244;51.460;7.090;2023-03-02T08:01:57;101353.47;;;0.93;58.51
12360;BME280;6244;51.460;7.090;2023-03-02T08:06:54;101338.78;;;1.31;57.65
12360;BME280;6244;51.460;7.090;2023-03-02T08:11:52;101344.59;;;1.91;56.38
12360;BME280;6244;51.460;7.090;2023-03-02T08:16:48;101343.22;;;2.76;53.91
12360;BME280;6244;51.460;7.090;2023-03-02T08:21:46;101338.56;;;3.15;51.84
12360;BME280;6244;51.460;7.090;2023-03-02T08:26:43;101343.16;;;4.33;47.51
12360;BME280;6244;51.460;7.090;2023-03-02T08:31:41;101326.84;;;6.55;43.26
12360;BME280;6244;51.460;7.090;2023-03-02T08:36:38;101318.06;;;7.27;38.29
12360;BME280;6244;51.460;7.090;2023-03-02T08:41:35;101319.25;;;7.48;38.18
12360;BME280;6244;51.460;7.090;2023-03-02T08:46:31;101316.19;;;7.94;36.27
12360;BME280;6244;51.460;7.090;2023-03-02T08:51:29;101309.69;;;8.06;35.91
12360;BME280;6244;51.460;7.090;2023-03-02T08:56:27;101314.59;;;8.16;35.89
12360;BME280;6244;51.460;7.090;2023-03-02T09:01:26;101307.22;;;8.01;35.29
12360;BME280;6244;51.460;7.090;2023-03-02T09:06:24;101299.94;;;8.68;34.90
12360;BME280;6244;51.460;7.090;2023-03-02T09:11:22;101297.97;;;8.75;34.51
12360;BME280;6244;51.460;7.090;2023-03-02T09:16:19;101291.50;;;8.85;33.82
12360;BME280;6244;51.460;7.090;2023-03-02T09:21:15;101289.31;;;9.48;33.28
12360;BME280;6244;51.460;7.090;2023-03-02T09:26:12;101288.00;;;9.36;32.57
12360;BME280;6244;51.460;7.090;2023-03-02T09:31:10;101288.06;;;9.09;33.87
12360;BME280;6244;51.460;7.090;2023-03-02T09:36:09;101274.97;;;10.26;32.19
12360;BME280;6244;51.460;7.090;2023-03-02T09:41:21;101276.66;;;11.32;30.06
12360;BME280;6244;51.460;7.090;2023-03-02T09:46:25;101281.66;;;10.98;30.33
12360;BME280;6244;51.460;7.090;2023-03-02T09:51:33;101274.47;;;11.42;29.64
12360;BME280;6244;51.460;7.090;2023-03-02T09:56:33;101277.16;;;11.80;29.54
12360;BME280;6244;51.460;7.090;2023-03-02T10:01:46;101270.16;;;12.52;28.89
12360;BME280;6244;51.460;7.090;2023-03-02T10:06:45;101266.94;;;13.49;27.09
12360;BME280;6244;51.460;7.090;2023-03-02T10:11:53;101267.75;;;13.83;26.11
12360;BME280;6244;51.460;7.090;2023-03-02T10:17:07;101268.22;;;13.42;27.05
12360;BME280;6244;51.460;7.090;2023-03-02T10:22:16;101267.28;;;13.59;25.78
12360;BME280;6244;51.460;7.090;2023-03-02T10:27:16;101271.63;;;13.60;26.53
12360;BME280;6244;51.460;7.090;2023-03-02T10:32:19;101265.28;;;14.11;25.87
12360;BME280;6244;51.460;7.090;2023-03-02T10:37:18;101267.66;;;14.32;25.70
12360;BME280;6244;51.460;7.090;2023-03-02T10:42:19;101261.84;;;14.25;26.36
12360;BME280;6244;51.460;7.090;2023-03-02T10:47:23;101263.38;;;14.91;25.44
12360;BME280;6244;51.460;7.090;2023-03-02T10:52:21;101245.63;;;14.63;25.02
12360;BME280;6244;51.460;7.090;2023-03-02T10:57:33;101254.53;;;14.30;25.11
12360;BME280;6244;51.460;7.090;2023-03-02T11:02:33;101253.63;;;13.68;26.27
12360;BME280;6244;51.460;7.090;2023-03-02T11:07:31;101249.06;;;14.49;25.80
12360;BME280;6244;51.460;7.090;2023-03-02T11:12:29;101238.53;;;14.79;25.30
12360;BME280;6244;51.460;7.090;2023-03-02T11:17:30;101240.38;;;15.36;25.04
12360;BME280;6244;51.460;7.090;2023-03-02T11:22:35;101243.41;;;15.15;23.68
12360;BME280;6244;51.460;7.090;2023-03-02T11:27:35;101239.69;;;15.89;23.27
12360;BME280;6244;51.460;7.090;2023-03-02T11:32:37;101231.13;;;15.98;24.19
12360;BME280;6244;51.460;7.090;2023-03-02T11:37:40;101229.34;;;16.53;22.95
12360;BME280;6244;51.460;7.090;2023-03-02T11:42:40;101225.75;;;16.00;23.55
12360;BME280;6244;51.460;7.090;2023-03-02T11:47:38;101221.31;;;16.67;22.03
12360;BME280;6244;51.460;7.090;2023-03-02T11:52:43;101213.28;;;16.02;22.04
12360;BME280;6244;51.460;7.090;2023-03-02T11:57:44;101197.81;;;16.35;21.26
12360;BME280;6244;51.460;7.090;2023-03-02T12:02:43;101210.28;;;15.94;21.63
12360;BME280;6244;51.460;7.090;2023-03-02T12:07:41;101193.63;;;16.58;21.84
12360;BME280;6244;51.460;7.090;2023-03-02T12:12:41;101191.75;;;17.11;21.36
12360;BME280;6244;51.460;7.090;2023-03-02T12:17:42;101180.97;;;17.14;20.67
12360;BME280;6244;51.460;7.090;2023-03-02T12:22:38;101177.81;;;16.44;21.59
12360;BME280;6244;51.460;7.090;2023-03-02T12:27:38;101186.19;;;15.84;22.76
12360;BME280;6244;51.460;7.090;2023-03-02T12:32:36;101182.88;;;16.99;20.96
12360;BME280;6244;51.460;7.090;2023-03-02T12:37:40;101177.47;;;16.88;20.91
12360;BME280;6244;51.460;7.090;2023-03-02T12:42:49;101171.78;;;15.61;21.17
12360;BME280;6244;51.460;7.090;2023-03-02T12:47:57;101161.13;;;14.33;23.81
12360;BME280;6244;51.460;7.090;2023-03-02T12:52:57;101160.09;;;12.93;25.03
12360;BME280;6244;51.460;7.090;2023-03-02T12:57:57;101149.44;;;12.10;27.10
12360;BME280;6244;51.460;7.090;2023-03-02T13:02:57;101140.41;;;12.16;26.92
12360;BME280;6244;51.460;7.090;2023-03-02T13:07:57;101132.31;;;11.84;28.55
12360;BME280;6244;51.460;7.090;2023-03-02T13:12:56;101125.97;;;11.88;27.06
12360;BME280;6244;51.460;7.090;2023-03-02T13:17:54;101119.94;;;11.86;27.83
12360;BME280;6244;51.460;7.090;2023-03-02T13:22:52;101121.75;;;11.67;27.11
12360;BME280;6244;51.460;7.090;2023-03-02T13:27:53;101114.72;;;11.67;29.05
12360;BME280;6244;51.460;7.090;2023-03-02T13:32:54;101114.44;;;11.55;29.02
12360;BME280;6244;51.460;7.090;2023-03-02T13:37:57;101109.78;;;11.42;28.23
12360;BME280;6244;51.460;7.090;2023-03-02T13:42:54;101123.47;;;11.49;29.64
12360;BME280;6244;51.460;7.090;2023-03-02T13:47:52;101108.97;;;11.59;29.20
12360;BME280;6244;51.460;7.090;2023-03-02T13:52:49;101110.81;;;11.38;29.54
12360;BME280;6244;51.460;7.090;2023-03-02T13:57:47;101105.06;;;11.49;30.25
12360;BME280;6244;51.460;7.090;2023-03-02T14:02:45;101099.53;;;11.55;31.65
12360;BME280;6244;51.460;7.090;2023-03-02T14:07:44;101094.13;;;11.58;30.17
12360;BME280;6244;51.460;7.090;2023-03-02T14:12:42;101087.44;;;11.51;29.72
12360;BME280;6244;51.460;7.090;2023-03-02T14:17:41;101073.25;;;11.55;31.41
12360;BME280;6244;51.460;7.090;2023-03-02T14:22:37;101072.59;;;11.50;31.73
12360;BME280;6244;51.460;7.090;2023-03-02T14:27:36;101078.75;;;11.32;32.06
12360;BME280;6244;51.460;7.090;2023-03-02T14:32:33;101079.50;;;11.34;32.73
12360;BME280;6244;51.460;7.090;2023-03-02T14:37:29;101072.13;;;11.23;34.23
12360;BME280;6244;51.460;7.090;2023-03-02T14:42:26;101071.44;;;11.20;34.08
12360;BME280;6244;51.460;7.090;2023-03-02T14:47:24;101074.63;;;11.07;34.20
12360;BME280;6244;51.460;7.090;2023-03-02T14:52:22;101077.63;;;11.18;34.59
12360;BME280;6244;51.460;7.090;2023-03-02T14:57:23;101069.16;;;11.12;34.48
12360;BME280;6244;51.460;7.090;2023-03-02T15:02:23;101070.13;;;10.91;35.48
12360;BME280;6244;51.460;7.090;2023-03-02T15:07:20;101066.19;;;10.82;36.93
12360;BME280;6244;51.460;7.090;2023-03-02T15:12:16;101053.31;;;10.76;36.78
12360;BME280;6244;51.460;7.090;2023-03-02T15:17:13;101063.97;;;10.73;38.02
12360;BME280;6244;51.460;7.090;2023-03-02T15:22:11;101058.50;;;10.58;38.99
12360;BME280;6244;51.460;7.090;2023-03-02T15:27:08;101059.88;;;10.47;38.16
12360;BME280;6244;51.460;7.090;2023-03-02T15:32:05;101061.72;;;10.24;39.35
12360;BME280;6244;51.460;7.090;2023-03-02T15:37:01;101062.22;;;10.12;39.71
12360;BME280;6244;51.460;7.090;2023-03-02T15:41:59;101062.28;;;9.90;41.01
12360;BME280;6244;51.460;7.090;2023-03-02T15:46:57;101058.38;;;9.79;41.75
12360;BME280;6244;51.460;7.090;2023-03-02T15:51:55;101058.84;;;9.68;41.80
12360;BME280;6244;51.460;7.090;2023-03-02T15:56:52;101061.53;;;9.45;42.76
12360;BME280;6244;51.460;7.090;2023-03-02T16:01:51;101063.66;;;9.35;43.03
12360;BME280;6244;51.460;7.090;2023-03-02T16:06:47;101067.31;;;9.09;44.46
12360;BME280;6244;51.460;7.090;2023-03-02T16:11:44;101077.44;;;9.18;44.23
12360;BME280;6244;51.460;7.090;2023-03-02T16:16:40;101078.63;;;8.86;44.84
12360;BME280;6244;51.460;7.090;2023-03-02T16:21:38;101081.84;;;8.46;46.15
12360;BME280;6244;51.460;7.090;2023-03-02T16:26:36;101076.72;;;8.16;47.64
12360;BME280;6244;51.460;7.090;2023-03-02T16:31:33;101082.53;;;8.00;48.69
12360;BME280;6244;51.460;7.090;2023-03-02T16:36:32;101089.69;;;7.94;48.53
12360;BME280;6244;51.460;7.090;2023-03-02T16:41:30;101091.91;;;7.52;49.50
12360;BME280;6244;51.460;7.090;2023-03-02T16:46:29;101090.22;;;7.23;50.67
12360;BME280;6244;51.460;7.090;2023-03-02T16:51:26;101096.59;;;7.13;50.85
12360;BME280;6244;51.460;7.090;2023-03-02T16:56:23;101098.41;;;7.11;51.19
12360;BME280;6244;51.460;7.090;2023-03-02T17:01:22;101110.25;;;6.92;51.79
12360;BME280;6244;51.460;7.090;2023-03-02T17:06:21;101109.03;;;6.74;52.00
12360;BME280;6244;51.460;7.090;2023-03-02T17:11:18;101108.72;;;6.54;52.74
12360;BME280;6244;51.460;7.090;2023-03-02T17:16:15;101113.31;;;6.45;53.36
12360;BME280;6244;51.460;7.090;2023-03-02T17:21:15;101115.34;;;6.34;53.82
12360;BME280;6244;51.460;7.090;2023-03-02T17:26:12;101125.22;;;6.22;54.47
12360;BME280;6244;51.460;7.090;2023-03-02T17:31:08;101136.72;;;6.13;55.08
12360;BME280;6244;51.460;7.090;2023-03-02T17:36:07;101135.25;;;6.03;55.62
12360;BME280;6244;51.460;7.090;2023-03-02T17:41:08;101145.97;;;5.91;56.65
12360;BME280;6244;51.460;7.090;2023-03-02T17:46:13;101154.78;;;5.83;57.29
12360;BME280;6244;51.460;7.090;2023-03-02T17:51:10;101164.97;;;5.96;57.90
12360;BME280;6244;51.460;7.090;2023-03-02T17:56:11;101174.44;;;5.58;59.48
12360;BME280;6244;51.460;7.090;2023-03-02T18:01:08;101188.59;;;5.46;60.13
12360;BME280;6244;51.460;7.090;2023-03-02T18:06:05;101190.53;;;5.37;60.49
12360;BME280;6244;51.460;7.090;2023-03-02T18:11:02;101198.16;;;5.44;60.42
12360;BME280;6244;51.460;7.090;2023-03-02T18:16:00;101208.94;;;5.27;60.69
12360;BME280;6244;51.460;7.090;2023-03-02T18:20:57;101219.59;;;5.15;61.76
12360;BME280;6244;51.460;7.090;2023-03-02T18:25:54;101223.19;;;5.08;61.44
12360;BME280;6244;51.460;7.090;2023-03-02T18:30:50;101229.44;;;4.99;61.60
12360;BME280;6244;51.460;7.090;2023-03-02T18:35:48;101234.72;;;4.96;61.54
12360;BME280;6244;51.460;7.090;2023-03-02T18:40:44;101238.63;;;4.69;61.63
12360;BME280;6244;51.460;7.090;2023-03-02T18:45:41;101250.81;;;4.67;61.62
12360;BME280;6244;51.460;7.090;2023-03-02T18:50:37;101256.63;;;4.82;62.03
12360;BME280;6244;51.460;7.090;2023-03-02T18:55:36;101265.53;;;4.68;62.63
12360;BME280;6244;51.460;7.090;2023-03-02T19:00:32;101270.03;;;4.57;62.89
12360;BME280;6244;51.460;7.090;2023-03-02T19:05:30;101274.56;;;4.48;63.61
12360;BME280;6244;51.460;7.090;2023-03-02T19:10:27;101274.75;;;4.34;63.53
12360;BME280;6244;51.460;7.090;2023-03-02T19:15:25;101275.72;;;4.27;64.19
12360;BME280;6244;51.460;7.090;2023-03-02T19:20:21;101273.72;;;4.44;64.00
12360;BME280;6244;51.460;7.090;2023-03-02T19:25:19;101285.41;;;4.17;64.14
12360;BME280;6244;51.460;7.090;2023-03-02T19:30:19;101284.13;;;3.84;65.67
12360;BME280;6244;51.460;7.090;2023-03-02T19:35:17;101286.66;;;3.90;65.68
12360;BME280;6244;51.460;7.090;2023-03-02T19:40:16;101286.00;;;3.74;66.35
12360;BME280;6244;51.460;7.090;2023-03-02T19:45:15;101300.00;;;3.63;66.80
12360;BME280;6244;51.460;7.090;2023-03-02T19:50:13;101302.59;;;3.63;67.23
12360;BME280;6244;51.460;7.090;2023-03-02T19:55:42;101295.44;;;3.03;69.60
12360;BME280;6244;51.460;7.090;2023-03-02T20:00:38;101298.00;;;3.08;69.44
12360;BME280;6244;51.460;7.090;2023-03-02T20:05:35;101302.16;;;3.21;69.40
12360;BME280;6244;51.460;7.090;2023-03-02T20:10:35;101312.63;;;3.15;69.31
12360;BME280;6244;51.460;7.090;2023-03-02T20:15:35;101304.81;;;3.18;69.04
12360;BME280;6244;51.460;7.090;2023-03-02T21:11:25;101334.88;;;2.38;72.20
12360;BME280;6244;51.460;7.090;2023-03-02T21:16:24;101334.22;;;1.97;71.96
12360;BME280;6244;51.460;7.090;2023-03-02T21:21:22;101326.44;;;2.02;72.37
12360;BME280;6244;51.460;7.090;2023-03-02T21:26:19;101332.50;;;1.96;72.52
12360;BME280;6244;51.460;7.090;2023-03-02T21:31:19;101320.50;;;1.82;72.54
12360;BME280;6244;51.460;7.090;2023-03-02T21:36:18;101316.16;;;1.88;73.41
12360;BME280;6244;51.460;7.090;2023-03-02T21:41:16;101317.91;;;1.82;73.50
12360;BME280;6244;51.460;7.090;2023-03-02T21:46:16;101322.13;;;1.98;73.33
12360;BME280;6244;51.460;7.090;2023-03-02T21:51:15;101319.56;;;1.99;74.18
12360;BME280;6244;51.460;7.090;2023-03-02T21:56:16;101315.13;;;2.17;73.92
12360;BME280;6244;51.460;7.090;2023-03-02T22:01:15;101320.50;;;1.86;75.10
12360;BME280;6244;51.460;7.090;2023-03-02T22:06:16;101318.59;;;2.16;74.75
12360;BME280;6244;51.460;7.090;2023-03-02T22:11:18;101315.66;;;2.64;72.97
12360;BME280;6244;51.460;7.090;2023-03-02T22:16:17;101318.56;;;2.19;73.73
12360;BME280;6244;51.460;7.090;2023-03-02T22:21:29;101320.03;;;2.56;72.63
12360;BME280;6244;51.460;7.090;2023-03-02T22:26:26;101318.19;;;2.74;72.95
12360;BME280;6244;51.460;7.090;2023-03-02T22:31:22;101315.28;;;3.06;72.00
12360;BME280;6244;51.460;7.090;2023-03-02T22:36:21;101322.66;;;3.45;69.96
12360;BME280;6244;51.460;7.090;2023-03-02T22:41:19;101322.69;;;3.44;69.94
12360;BME280;6244;51.460;7.090;2023-03-02T22:46:17;101330.47;;;3.42;68.45
12360;BME280;6244;51.460;7.090;2023-03-02T22:51:16;101331.91;;;2.83;69.78
12360;BME280;6244;51.460;7.090;2023-03-02T22:56:26;101330.38;;;2.61;70.50
12360;BME280;6244;51.460;7.090;2023-03-02T23:01:25;101331.03;;;2.84;71.62
12360;BME280;6244;51.460;7.090;2023-03-02T23:06:25;101328.66;;;2.57;71.31
12360;BME280;6244;51.460;7.090;2023-03-02T23:11:25;101325.09;;;2.75;70.78
12360;BME280;6244;51.460;7.090;2023-03-02T23:16:23;101344.25;;;2.54;71.57
12360;BME280;6244;51.460;7.090;2023-03-02T23:21:22;101342.53;;;2.53;71.94
12360;BME280;6244;51.460;7.090;2023-03-02T23:26:20;101342.50;;;2.54;72.01
12360;BME280;6244;51.460;7.090;2023-03-02T23:31:18;101337.28;;;2.62;70.48
12360;BME280;6244;51.460;7.090;2023-03-02T23:36:15;101333.53;;;2.95;69.44
12360;BME280;6244;51.460;7.090;2023-03-02T23:41:12;101336.38;;;2.66;71.03
12360;BME280;6244;51.460;7.090;2023-03-02T23:46:09;101327.72;;;2.67;70.20
12360;BME280;6244;51.460;7.090;2023-03-02T23:51:09;101332.34;;;2.27;71.95
12360;BME280;6244;51.460;7.090;2023-03-02T23:56:06;101334.00;;;2.32;71.48
